createdAt,value
2019-06-27T00:00:06.276Z,61.79
2019-06-27T00:00:46.836Z,61.11
2019-06-27T00:01:27.427Z,61.11
2019-06-27T00:02:07.957Z,61.5
2019-06-27T00:02:48.628Z,61.69
2019-06-27T00:03:29.203Z,61.6
2019-06-27T00:04:09.760Z,61.89
2019-06-27T00:04:50.322Z,61.69
2019-06-27T00:05:30.890Z,61.5
2019-06-27T00:06:11.466Z,61.3
2019-06-27T00:06:52.024Z,61.21
2019-06-27T00:07:32.590Z,61.79
2019-06-27T00:08:13.156Z,61.79
2019-06-27T00:08:53.732Z,62.18
2019-06-27T00:09:34.311Z,61.69
2019-06-27T00:10:14.875Z,62.05
2019-06-27T00:10:55.447Z,61.89
2019-06-27T00:11:36.026Z,62.27
2019-06-27T00:12:16.605Z,62.27
2019-06-27T00:12:57.169Z,61.76
2019-06-27T00:13:37.737Z,61.76
2019-06-27T00:14:18.350Z,62.44
2019-06-27T00:14:58.938Z,62.73
2019-06-27T00:15:39.499Z,62.82
2019-06-27T00:16:20.077Z,63.08
2019-06-27T00:17:00.643Z,63.02
2019-06-27T00:17:41.203Z,62.98
2019-06-27T00:18:21.823Z,63.08
2019-06-27T00:19:02.410Z,62.89
2019-06-27T00:19:42.978Z,62.79
2019-06-27T00:20:23.534Z,63.08
2019-06-27T00:21:04.119Z,62.89
2019-06-27T00:21:44.703Z,62.89
2019-06-27T00:22:25.257Z,62.98
2019-06-27T00:23:05.817Z,63.18
2019-06-27T00:23:46.368Z,63.47
2019-06-27T00:24:26.921Z,63.47
2019-06-27T00:25:07.492Z,63.28
2019-06-27T00:25:48.060Z,63.08
2019-06-27T00:26:28.664Z,62.98
2019-06-27T00:27:09.188Z,63.18
2019-06-27T00:27:49.762Z,63.08
2019-06-27T00:28:30.318Z,63.76
2019-06-27T00:29:10.883Z,63.85
2019-06-27T00:29:51.782Z,63.76
2019-06-27T00:30:32.361Z,63.18
2019-06-27T00:31:12.936Z,63.08
2019-06-27T00:31:53.505Z,63.56
2019-06-27T00:32:34.062Z,63.37
2019-06-27T00:33:14.641Z,63.08
2019-06-27T00:33:55.194Z,62.6
2019-06-27T00:34:35.755Z,62.7
2019-06-27T00:35:16.349Z,63.08
2019-06-27T00:35:56.932Z,62.6
2019-06-27T00:36:37.472Z,62.98
2019-06-27T00:37:18.034Z,62.7
2019-06-27T00:37:58.609Z,62.4
2019-06-27T00:38:39.202Z,62.21
2019-06-27T00:39:19.804Z,62.98
2019-06-27T00:40:00.364Z,62.4
2019-06-27T00:40:40.942Z,62.4
2019-06-27T00:41:21.496Z,61.7
2019-06-27T00:42:02.098Z,61.6
2019-06-27T00:42:42.655Z,61.99
2019-06-27T00:43:23.268Z,61.7
2019-06-27T00:44:03.820Z,61.6
2019-06-27T00:44:44.390Z,62.28
2019-06-27T00:45:24.961Z,61.51
2019-06-27T00:46:05.525Z,62.18
2019-06-27T00:46:46.100Z,62.37
2019-06-27T00:47:26.671Z,62.66
2019-06-27T00:48:07.261Z,62.28
2019-06-27T00:48:47.837Z,61.89
2019-06-27T00:49:28.431Z,62.18
2019-06-27T00:50:09.030Z,61.7
2019-06-27T00:50:49.591Z,61.99
2019-06-27T00:51:30.155Z,62.57
2019-06-27T00:52:10.749Z,62.76
2019-06-27T00:52:51.294Z,62.28
2019-06-27T00:53:31.862Z,62.37
2019-06-27T00:54:12.407Z,62.28
2019-06-27T00:54:52.964Z,62.18
2019-06-27T00:55:33.546Z,62.47
2019-06-27T00:56:14.129Z,62.18
2019-06-27T00:56:54.717Z,62.28
2019-06-27T00:57:35.291Z,62.08
2019-06-27T00:58:15.866Z,61.6
2019-06-27T00:58:56.442Z,61.8
2019-06-27T00:59:37.031Z,61.89
2019-06-27T01:00:17.615Z,61.7
2019-06-27T01:00:58.176Z,61.7
2019-06-27T01:01:38.749Z,62.28
2019-06-27T01:02:19.302Z,62.57
2019-06-27T01:02:59.919Z,62.54
2019-06-27T01:03:40.488Z,62.82
2019-06-27T01:04:21.054Z,62.76
2019-06-27T01:05:01.608Z,62.25
2019-06-27T01:05:42.170Z,62.44
2019-06-27T01:06:22.744Z,62.54
2019-06-27T01:07:03.294Z,62.34
2019-06-27T01:07:43.853Z,62.34
2019-06-27T01:08:24.416Z,62.73
2019-06-27T01:09:04.976Z,63.09
2019-06-27T01:09:45.563Z,63.09
2019-06-27T01:10:26.144Z,62.89
2019-06-27T01:11:06.678Z,63.09
2019-06-27T01:11:47.247Z,63.57
2019-06-27T01:12:27.832Z,63.85
2019-06-27T01:13:08.405Z,63.85
2019-06-27T01:13:48.966Z,63.37
2019-06-27T01:14:29.526Z,62.99
2019-06-27T01:15:10.154Z,63.09
2019-06-27T01:15:50.728Z,63.28
2019-06-27T01:16:31.297Z,63.63
2019-06-27T01:17:11.885Z,63.63
2019-06-27T01:17:52.460Z,64.11
2019-06-27T01:18:33.026Z,64.11
2019-06-27T01:19:13.598Z,63.54
2019-06-27T01:19:54.146Z,64.02
2019-06-27T01:20:34.723Z,63.82
2019-06-27T01:21:15.322Z,63.24
2019-06-27T01:21:55.887Z,63.82
2019-06-27T01:22:36.434Z,64.4
2019-06-27T01:23:17.012Z,64.69
2019-06-27T01:23:57.583Z,64.89
2019-06-27T01:24:38.148Z,64.89
2019-06-27T01:25:18.712Z,64.37
2019-06-27T01:25:59.262Z,64.69
2019-06-27T01:26:39.841Z,65.05
2019-06-27T01:27:29.328Z,65.14
2019-06-27T01:28:01.073Z,64.95
2019-06-27T01:28:41.631Z,65.14
2019-06-27T01:29:22.233Z,65.05
2019-06-27T01:30:02.810Z,65.14
2019-06-27T01:30:43.384Z,65.14
2019-06-27T01:31:23.935Z,65.14
2019-06-27T01:32:04.532Z,65.37
2019-06-27T01:32:45.067Z,64.79
2019-06-27T01:33:25.652Z,65.08
2019-06-27T01:34:06.218Z,64.98
2019-06-27T01:34:46.784Z,64.69
2019-06-27T01:35:27.458Z,64.4
2019-06-27T01:36:08.028Z,63.98
2019-06-27T01:36:48.656Z,64.31
2019-06-27T01:37:29.204Z,63.7
2019-06-27T01:39:23.530Z,63.6
2019-06-27T01:40:04.098Z,63.5
2019-06-27T01:40:44.664Z,63.6
2019-06-27T01:41:25.230Z,64.18
2019-06-27T01:42:05.789Z,64.37
2019-06-27T01:42:46.365Z,64.08
2019-06-27T01:43:26.901Z,63.6
2019-06-27T01:44:07.487Z,63.7
2019-06-27T01:44:48.046Z,63.98
2019-06-27T01:45:28.615Z,64.47
2019-06-27T01:46:09.164Z,64.4
2019-06-27T01:46:49.717Z,63.63
2019-06-27T01:47:30.290Z,63.15
2019-06-27T01:48:10.870Z,63.31
2019-06-27T01:48:51.438Z,63.44
2019-06-27T01:49:32.007Z,63.12
2019-06-27T01:50:12.585Z,62.96
2019-06-27T01:50:53.163Z,62.76
2019-06-27T01:51:33.738Z,61.8
2019-06-27T01:52:14.310Z,61.68
2019-06-27T01:52:54.868Z,62.28
2019-06-27T01:53:35.445Z,62.54
2019-06-27T01:54:16.014Z,62.15
2019-06-27T01:54:56.560Z,61.87
2019-06-27T01:55:37.144Z,62.54
2019-06-27T01:56:17.726Z,62.63
2019-06-27T01:56:58.337Z,62.45
2019-06-27T01:57:46.424Z,62.18
2019-06-27T01:58:19.500Z,61.96
2019-06-27T01:59:00.070Z,61.96
2019-06-27T01:59:40.672Z,61.77
2019-06-27T02:00:21.244Z,61.68
2019-06-27T02:01:01.837Z,62.06
2019-06-27T02:01:42.404Z,61.87
2019-06-27T02:02:22.963Z,62.63
2019-06-27T02:03:03.550Z,62.06
2019-06-27T02:03:44.113Z,61.87
2019-06-27T02:04:24.683Z,61.48
2019-06-27T02:05:05.237Z,61.58
2019-06-27T02:05:45.808Z,61.38
2019-06-27T02:06:26.384Z,61.38
2019-06-27T02:07:06.970Z,61.68
2019-06-27T02:07:47.545Z,60.61
2019-06-27T02:08:28.123Z,61.1
2019-06-27T02:09:08.703Z,61.48
2019-06-27T02:09:49.279Z,61.96
2019-06-27T02:10:29.852Z,62.25
2019-06-27T02:11:10.417Z,62.54
2019-06-27T02:11:51.004Z,62.35
2019-06-27T02:12:31.564Z,62.15
2019-06-27T02:13:12.153Z,61.68
2019-06-27T02:13:52.775Z,61.68
2019-06-27T02:14:33.357Z,61.77
2019-06-27T02:15:13.940Z,61.87
2019-06-27T02:15:54.497Z,61.38
2019-06-27T02:16:35.072Z,61.68
2019-06-27T02:17:15.674Z,61.58
2019-06-27T02:17:56.262Z,61.77
2019-06-27T02:18:36.839Z,61.77
2019-06-27T02:19:17.444Z,61
2019-06-27T02:19:58.024Z,60.8
2019-06-27T02:20:38.617Z,60.9
2019-06-27T02:21:19.216Z,60.61
2019-06-27T02:21:59.787Z,60.03
2019-06-27T02:22:40.350Z,59.94
2019-06-27T02:23:20.916Z,59.84
2019-06-27T02:24:01.488Z,60.13
2019-06-27T02:24:42.044Z,61
2019-06-27T02:25:22.620Z,60.9
2019-06-27T02:26:03.182Z,61
2019-06-27T02:26:43.738Z,61.1
2019-06-27T02:27:24.298Z,61.38
2019-06-27T02:28:04.902Z,61
2019-06-27T02:28:45.501Z,61.29
2019-06-27T02:29:26.086Z,60.61
2019-06-27T02:30:06.652Z,60.9
2019-06-27T02:30:47.201Z,59.55
2019-06-27T02:31:27.790Z,59.55
2019-06-27T02:32:08.355Z,59.75
2019-06-27T02:32:48.951Z,60.13
2019-06-27T02:33:29.510Z,60.8
2019-06-27T02:34:10.064Z,61
2019-06-27T02:34:50.626Z,60.71
2019-06-27T02:35:31.205Z,60.42
2019-06-27T02:36:11.761Z,59.75
2019-06-27T02:36:52.312Z,60.03
2019-06-27T02:37:32.877Z,59.75
2019-06-27T02:38:13.451Z,59.55
2019-06-27T02:38:54.004Z,59.17
2019-06-27T02:39:34.568Z,59.55
2019-06-27T02:40:15.130Z,59.91
2019-06-27T02:40:58.635Z,60.68
2019-06-27T02:41:36.277Z,60
2019-06-27T02:42:16.847Z,60.2
2019-06-27T02:42:57.471Z,60.2
2019-06-27T02:43:38.013Z,60.97
2019-06-27T02:44:18.572Z,61.55
2019-06-27T02:44:59.140Z,60.77
2019-06-27T02:45:39.711Z,60.77
2019-06-27T02:46:20.268Z,60.49
2019-06-27T02:47:00.847Z,61.25
2019-06-27T02:47:41.428Z,61.74
2019-06-27T02:48:22.018Z,61.35
2019-06-27T02:49:02.573Z,60.77
2019-06-27T02:49:43.128Z,61.07
2019-06-27T02:50:23.684Z,61.07
2019-06-27T02:51:04.266Z,60.1
2019-06-27T02:51:44.812Z,59.91
2019-06-27T02:52:25.366Z,60.39
2019-06-27T02:53:05.963Z,59.43
2019-06-27T02:53:46.537Z,59.84
2019-06-27T02:54:27.132Z,60
2019-06-27T02:55:07.691Z,59.62
2019-06-27T02:55:48.229Z,59.23
2019-06-27T02:56:28.833Z,59.81
2019-06-27T02:57:09.386Z,59.91
2019-06-27T02:57:49.946Z,59.81
2019-06-27T02:58:32.211Z,60.49
2019-06-27T02:59:11.057Z,60
2019-06-27T02:59:51.626Z,59.52
2019-06-27T03:00:32.204Z,60.1
2019-06-27T03:01:12.807Z,60.2
2019-06-27T03:01:53.345Z,60.2
2019-06-27T03:02:33.975Z,59.91
2019-06-27T03:03:14.572Z,60.1
2019-06-27T03:03:55.165Z,60.77
2019-06-27T03:04:35.743Z,60.3
2019-06-27T03:05:16.342Z,60.97
2019-06-27T03:05:56.904Z,60.55
2019-06-27T03:06:37.449Z,60.84
2019-06-27T03:07:18.056Z,60.55
2019-06-27T03:07:58.615Z,60.36
2019-06-27T03:08:39.210Z,61.32
2019-06-27T03:09:19.801Z,61.52
2019-06-27T03:10:00.374Z,61.9
2019-06-27T03:10:40.951Z,62.19
2019-06-27T03:11:21.521Z,62
2019-06-27T03:12:02.072Z,62.09
2019-06-27T03:12:42.629Z,62.19
2019-06-27T03:13:23.206Z,61.32
2019-06-27T03:14:03.800Z,61.22
2019-06-27T03:14:44.353Z,60.94
2019-06-27T03:15:24.964Z,61.22
2019-06-27T03:16:05.479Z,61.13
2019-06-27T03:16:46.219Z,61.22
2019-06-27T03:17:26.810Z,61.55
2019-06-27T03:18:07.386Z,60.55
2019-06-27T03:18:48.098Z,60.75
2019-06-27T03:19:28.690Z,60.84
2019-06-27T03:20:09.303Z,61.04
2019-06-27T03:20:49.876Z,60.94
2019-06-27T03:21:30.481Z,60.75
2019-06-27T03:22:11.064Z,61.04
2019-06-27T03:22:51.666Z,61.32
2019-06-27T03:23:32.307Z,61.9
2019-06-27T03:24:12.888Z,61.52
2019-06-27T03:24:53.494Z,61.22
2019-06-27T03:25:34.066Z,60.94
2019-06-27T03:26:14.654Z,61.61
2019-06-27T03:26:55.290Z,61.71
2019-06-27T03:27:35.869Z,61.61
2019-06-27T03:28:16.457Z,62.19
2019-06-27T03:28:56.997Z,61.61
2019-06-27T03:29:37.973Z,61.42
2019-06-27T03:30:18.548Z,61.04
2019-06-27T03:30:59.107Z,60.87
2019-06-27T03:31:39.666Z,60.77
2019-06-27T03:32:20.249Z,61.16
2019-06-27T03:33:00.830Z,60.68
2019-06-27T03:33:41.450Z,60.49
2019-06-27T03:34:21.973Z,60.58
2019-06-27T03:35:02.563Z,60.58
2019-06-27T03:35:43.144Z,60.77
2019-06-27T03:36:23.730Z,59.81
2019-06-27T03:37:04.280Z,59.33
2019-06-27T03:37:44.862Z,59.23
2019-06-27T03:38:25.448Z,58.75
2019-06-27T03:39:06.035Z,59.2
2019-06-27T03:39:46.595Z,60.07
2019-06-27T03:40:27.183Z,59.2
2019-06-27T03:41:07.724Z,59.59
2019-06-27T03:41:48.278Z,60.17
2019-06-27T03:42:28.885Z,60.07
2019-06-27T03:43:09.449Z,60.27
2019-06-27T03:43:50.023Z,59.49
2019-06-27T03:44:30.573Z,59.27
2019-06-27T03:45:15.224Z,59.75
2019-06-27T03:45:51.745Z,59.75
2019-06-27T03:46:32.317Z,60.14
2019-06-27T03:47:12.897Z,59.85
2019-06-27T03:47:53.500Z,60.52
2019-06-27T03:48:34.050Z,60.62
2019-06-27T03:49:14.627Z,60.72
2019-06-27T03:49:55.207Z,60.72
2019-06-27T03:50:35.794Z,60.81
2019-06-27T03:51:16.374Z,60.81
2019-06-27T03:51:56.944Z,61
2019-06-27T03:52:37.511Z,61
2019-06-27T03:53:18.076Z,60.81
2019-06-27T03:53:58.643Z,59.94
2019-06-27T03:54:39.219Z,60.01
2019-06-27T03:55:19.762Z,59.92
2019-06-27T03:56:00.347Z,59.63
2019-06-27T03:56:40.931Z,60.21
2019-06-27T03:57:21.515Z,60.49
2019-06-27T03:58:02.078Z,60.59
2019-06-27T03:58:42.623Z,60.97
2019-06-27T03:59:23.187Z,61.33
2019-06-27T04:00:03.767Z,61.33
2019-06-27T04:00:44.303Z,61.81
2019-06-27T04:01:24.896Z,62.48
2019-06-27T04:02:05.488Z,62.77
2019-06-27T04:02:46.066Z,62.38
2019-06-27T04:03:26.669Z,62.1
2019-06-27T04:04:07.225Z,62.1
2019-06-27T04:04:47.805Z,62.38
2019-06-27T04:05:28.419Z,63.28
2019-06-27T04:06:08.945Z,62.58
2019-06-27T04:06:49.515Z,61.46
2019-06-27T04:07:30.099Z,61.46
2019-06-27T04:08:10.683Z,61.36
2019-06-27T04:08:51.235Z,62.23
2019-06-27T04:09:31.812Z,62.32
2019-06-27T04:10:16.777Z,61.46
2019-06-27T04:10:52.984Z,61.26
2019-06-27T04:11:33.566Z,60.88
2019-06-27T04:12:14.165Z,60.49
2019-06-27T04:12:54.728Z,60.88
2019-06-27T04:13:35.331Z,60.97
2019-06-27T04:14:15.914Z,60.97
2019-06-27T04:14:56.494Z,60.97
2019-06-27T04:15:37.058Z,61.71
2019-06-27T04:16:17.631Z,61.23
2019-06-27T04:16:58.230Z,62.1
2019-06-27T04:17:38.805Z,62.77
2019-06-27T04:18:19.423Z,62.19
2019-06-27T04:18:59.989Z,62.29
2019-06-27T04:19:40.580Z,62
2019-06-27T04:20:21.167Z,62.1
2019-06-27T04:21:01.735Z,62.77
2019-06-27T04:21:42.312Z,62.77
2019-06-27T04:22:22.884Z,62.38
2019-06-27T04:23:03.502Z,62.87
2019-06-27T04:23:44.057Z,62.96
2019-06-27T04:24:24.634Z,63.15
2019-06-27T04:25:05.221Z,62.29
2019-06-27T04:25:45.801Z,61.94
2019-06-27T04:26:26.349Z,61.55
2019-06-27T04:27:06.923Z,61.52
2019-06-27T04:27:47.509Z,61.55
2019-06-27T04:28:28.107Z,62.29
2019-06-27T04:29:08.670Z,62.71
2019-06-27T04:29:49.253Z,62.71
2019-06-27T04:30:29.827Z,61.84
2019-06-27T04:31:10.376Z,62.51
2019-06-27T04:31:50.961Z,62.61
2019-06-27T04:32:31.504Z,62.51
2019-06-27T04:33:12.132Z,62.03
2019-06-27T04:33:52.722Z,62.13
2019-06-27T04:34:33.353Z,62.32
2019-06-27T04:35:13.909Z,60.78
2019-06-27T04:35:54.500Z,60.97
2019-06-27T04:36:35.067Z,61.07
2019-06-27T04:37:15.655Z,60.49
2019-06-27T04:37:56.267Z,60.49
2019-06-27T04:38:36.818Z,61.07
2019-06-27T04:39:17.387Z,60.59
2019-06-27T04:39:57.995Z,60.59
2019-06-27T04:40:38.576Z,60.78
2019-06-27T04:41:19.187Z,59.72
2019-06-27T04:41:59.754Z,60.01
2019-06-27T04:42:40.342Z,60.59
2019-06-27T04:43:20.942Z,60.85
2019-06-27T04:44:01.509Z,60.37
2019-06-27T04:44:42.092Z,60.49
2019-06-27T04:45:22.658Z,60.3
2019-06-27T04:46:03.286Z,60.69
2019-06-27T04:46:43.905Z,61.43
2019-06-27T04:47:24.459Z,61.26
2019-06-27T04:48:05.044Z,61.65
2019-06-27T04:48:45.625Z,60.69
2019-06-27T04:49:26.200Z,59.63
2019-06-27T04:50:06.771Z,60.59
2019-06-27T04:50:47.319Z,60.3
2019-06-27T04:51:27.889Z,60.97
2019-06-27T04:52:08.469Z,60.78
2019-06-27T04:52:49.056Z,61.65
2019-06-27T04:53:29.655Z,61.55
2019-06-27T04:54:10.204Z,61.46
2019-06-27T04:54:50.751Z,61.55
2019-06-27T04:55:31.344Z,61.36
2019-06-27T04:56:11.918Z,61.65
2019-06-27T04:56:52.509Z,60.88
2019-06-27T04:57:33.068Z,61.07
2019-06-27T04:58:13.621Z,60.42
2019-06-27T04:58:54.212Z,61.1
2019-06-27T04:59:51.714Z,60.91
2019-06-27T05:00:15.367Z,60.14
2019-06-27T05:00:55.963Z,60.04
2019-06-27T05:01:36.535Z,59.94
2019-06-27T05:02:17.103Z,60.62
2019-06-27T05:02:57.669Z,60.14
2019-06-27T05:03:38.249Z,59.94
2019-06-27T05:04:18.804Z,60.52
2019-06-27T05:04:59.369Z,59.85
2019-06-27T05:05:39.929Z,59.66
2019-06-27T05:06:20.504Z,59.75
2019-06-27T05:07:01.067Z,60.07
2019-06-27T05:07:41.639Z,59.88
2019-06-27T05:08:22.211Z,59.78
2019-06-27T05:09:02.795Z,59.2
2019-06-27T05:09:43.426Z,58.63
2019-06-27T05:10:23.929Z,58.34
2019-06-27T05:11:04.502Z,58.53
2019-06-27T05:11:45.079Z,59.17
2019-06-27T05:12:25.671Z,59.66
2019-06-27T05:13:06.231Z,59.85
2019-06-27T05:13:46.809Z,60.27
2019-06-27T05:14:27.363Z,59.78
2019-06-27T05:15:07.942Z,58.72
2019-06-27T05:15:48.502Z,58.22
2019-06-27T05:16:29.056Z,57.95
2019-06-27T05:17:09.622Z,58.02
2019-06-27T05:17:50.187Z,58.5
2019-06-27T05:18:30.740Z,58.7
2019-06-27T05:19:11.304Z,58.4
2019-06-27T05:19:51.871Z,58.89
2019-06-27T05:20:32.432Z,59.37
2019-06-27T05:21:12.988Z,59.47
2019-06-27T05:21:53.559Z,58.98
2019-06-27T05:22:34.123Z,58.98
2019-06-27T05:23:14.734Z,59.17
2019-06-27T05:23:55.302Z,58.6
2019-06-27T05:24:35.887Z,57.67
2019-06-27T05:25:16.473Z,57.57
2019-06-27T05:25:57.065Z,57.25
2019-06-27T05:26:37.665Z,57.47
2019-06-27T05:27:18.222Z,57.15
2019-06-27T05:27:58.788Z,56.67
2019-06-27T05:28:39.343Z,57.09
2019-06-27T05:29:19.941Z,57.25
2019-06-27T05:30:09.036Z,56.96
2019-06-27T05:30:41.330Z,56.67
2019-06-27T05:31:21.910Z,57.15
2019-06-27T05:32:02.503Z,56.87
2019-06-27T05:32:43.073Z,56.67
2019-06-27T05:33:23.662Z,56.77
2019-06-27T05:34:04.219Z,56.48
2019-06-27T05:34:44.877Z,57.54
2019-06-27T05:35:25.407Z,57.47
2019-06-27T05:36:05.972Z,56.51
2019-06-27T05:36:46.530Z,56.41
2019-06-27T05:37:27.090Z,55.83
2019-06-27T05:38:07.662Z,56.41
2019-06-27T05:38:48.249Z,56.41
2019-06-27T05:39:28.819Z,57.47
2019-06-27T05:40:09.402Z,57.57
2019-06-27T05:40:50.068Z,57.86
2019-06-27T05:41:30.612Z,57.31
2019-06-27T05:42:11.191Z,57.5
2019-06-27T05:42:51.735Z,56.73
2019-06-27T05:43:32.396Z,55.87
2019-06-27T05:44:12.993Z,54.8
2019-06-27T05:44:53.575Z,54.8
2019-06-27T05:45:34.188Z,55.48
2019-06-27T05:46:14.742Z,55.79
2019-06-27T05:46:55.323Z,56.57
2019-06-27T05:47:35.877Z,54.44
2019-06-27T05:48:16.443Z,54.06
2019-06-27T05:48:57.015Z,54.71
2019-06-27T05:49:37.590Z,55.6
2019-06-27T05:50:18.192Z,55.22
2019-06-27T05:50:58.747Z,55.02
2019-06-27T05:51:39.325Z,55.22
2019-06-27T05:52:19.898Z,54.96
2019-06-27T05:53:00.511Z,55.54
2019-06-27T05:53:41.103Z,54.66
2019-06-27T05:54:21.679Z,53.61
2019-06-27T05:55:02.383Z,53.15
2019-06-27T05:55:42.821Z,53.44
2019-06-27T05:56:23.392Z,52.47
2019-06-27T05:57:04.132Z,52.01
2019-06-27T05:57:44.549Z,51.82
2019-06-27T05:58:25.087Z,52.4
2019-06-27T05:59:05.714Z,52.4
2019-06-27T05:59:46.270Z,51.73
2019-06-27T06:00:29.116Z,51.07
2019-06-27T06:01:07.433Z,49.73
2019-06-27T06:01:47.993Z,49.63
2019-06-27T06:02:28.552Z,49.82
2019-06-27T06:03:09.198Z,49.73
2019-06-27T06:03:49.887Z,50.69
2019-06-27T06:04:30.526Z,50.5
2019-06-27T06:05:11.103Z,49.24
2019-06-27T06:05:51.804Z,48.18
2019-06-27T06:06:32.534Z,48.66
2019-06-27T06:07:13.084Z,48.47
2019-06-27T06:07:53.662Z,48.08
2019-06-27T06:08:34.278Z,48.66
2019-06-27T06:09:14.883Z,48.76
2019-06-27T06:09:55.471Z,49.27
2019-06-27T06:10:36.055Z,48.37
2019-06-27T06:11:16.622Z,48.49
2019-06-27T06:11:57.204Z,48.39
2019-06-27T06:12:37.781Z,48.21
2019-06-27T06:13:18.385Z,47.91
2019-06-27T06:13:58.922Z,45.59
2019-06-27T06:14:39.514Z,45.89
2019-06-27T06:15:20.177Z,45.59
2019-06-27T06:16:01.212Z,45.59
2019-06-27T06:16:41.378Z,46.08
2019-06-27T06:17:21.975Z,46.06
2019-06-27T06:18:02.660Z,46.54
2019-06-27T06:18:43.214Z,47.02
2019-06-27T06:19:23.805Z,46.54
2019-06-27T06:20:04.388Z,46.83
2019-06-27T06:20:44.987Z,47.19
2019-06-27T06:21:25.594Z,48.06
2019-06-27T06:22:06.165Z,48.64
2019-06-27T06:22:46.803Z,48.95
2019-06-27T06:23:27.391Z,47.8
2019-06-27T06:24:07.950Z,46.44
2019-06-27T06:24:48.527Z,46.64
2019-06-27T06:25:29.134Z,46.81
2019-06-27T06:26:09.703Z,47.09
2019-06-27T06:26:50.257Z,46.9
2019-06-27T06:29:49.100Z,49.39
2019-06-27T06:30:43.050Z,49.8
2019-06-27T06:31:10.265Z,49.22
2019-06-27T06:31:50.816Z,47.89
2019-06-27T06:32:31.424Z,46.44
2019-06-27T06:33:12.071Z,45.67
2019-06-27T06:33:52.643Z,45.09
2019-06-27T06:34:33.276Z,45.18
2019-06-27T06:36:46.584Z,45.84
2019-06-27T06:37:27.157Z,46.51
2019-06-27T06:38:07.768Z,47.09
2019-06-27T06:38:48.379Z,47.67
2019-06-27T06:39:28.964Z,46.42
2019-06-27T06:40:09.572Z,47.29
2019-06-27T06:40:50.182Z,48.06
2019-06-27T06:41:30.781Z,47.19
2019-06-27T06:42:11.393Z,47.02
2019-06-27T06:42:52.003Z,46.92
2019-06-27T06:43:32.660Z,47.31
2019-06-27T06:44:13.255Z,47.31
2019-06-27T06:44:54.000Z,46.15
2019-06-27T06:45:34.590Z,45.86
2019-06-27T06:46:15.245Z,46.34
2019-06-27T06:46:55.865Z,47.12
2019-06-27T06:47:36.502Z,47.8
2019-06-27T06:48:17.112Z,48.28
2019-06-27T06:48:57.705Z,48.39
2019-06-27T06:49:38.326Z,47.53
2019-06-27T06:50:18.928Z,48.01
2019-06-27T06:50:59.516Z,47.74
2019-06-27T06:51:40.160Z,47.07
2019-06-27T06:52:20.797Z,46.22
2019-06-27T06:53:01.365Z,46.32
2019-06-27T06:53:42.170Z,46.42
2019-06-27T06:54:22.640Z,44.09
2019-06-27T06:55:03.278Z,43.32
2019-06-27T06:55:44.009Z,42.55
2019-06-27T06:56:24.747Z,43.61
2019-06-27T06:57:05.421Z,44.96
2019-06-27T06:57:46.077Z,44.96
2019-06-27T06:58:26.700Z,44.12
2019-06-27T06:59:07.353Z,44.89
2019-06-27T06:59:47.953Z,44.31
2019-06-27T07:00:28.596Z,43.92
2019-06-27T07:01:09.245Z,43.63
2019-06-27T07:01:49.857Z,43.95
2019-06-27T07:02:30.468Z,43.85
2019-06-27T07:03:11.077Z,44.13
2019-06-27T07:03:51.726Z,43.95
2019-06-27T07:04:32.314Z,43.85
2019-06-27T07:05:12.951Z,44.53
2019-06-27T07:05:53.589Z,44.45
2019-06-27T07:06:34.326Z,43.38
2019-06-27T07:07:14.927Z,43.68
2019-06-27T07:07:55.530Z,42.71
2019-06-27T07:08:36.226Z,41.25
2019-06-27T07:09:17.038Z,41.35
2019-06-27T07:09:57.543Z,42.14
2019-06-27T07:10:38.212Z,42.05
2019-06-27T07:11:18.903Z,41.37
2019-06-27T07:11:59.669Z,41.56
2019-06-27T07:12:40.326Z,40.99
2019-06-27T07:13:20.952Z,40.91
2019-06-27T07:14:01.583Z,40.52
2019-06-27T07:14:42.157Z,40.42
2019-06-27T07:15:22.747Z,40.61
2019-06-27T07:16:03.327Z,40.71
2019-06-27T07:16:43.900Z,40.03
2019-06-27T07:17:24.514Z,40.03
2019-06-27T07:18:05.138Z,39.74
2019-06-27T07:18:45.757Z,40.23
2019-06-27T07:19:26.355Z,39.94
2019-06-27T07:20:06.991Z,39.94
2019-06-27T07:20:47.564Z,40.42
2019-06-27T07:21:28.190Z,40.42
2019-06-27T07:24:42.641Z,37.73
2019-06-27T07:25:23.209Z,37.41
2019-06-27T07:26:03.763Z,35.38
2019-06-27T07:26:44.341Z,35.67
2019-06-27T07:27:24.895Z,36.33
2019-06-27T07:28:05.480Z,37.59
2019-06-27T07:28:46.064Z,37.98
2019-06-27T07:29:26.648Z,37.98
2019-06-27T07:30:07.249Z,37.77
2019-06-27T07:30:47.801Z,38.83
2019-06-27T07:31:28.383Z,39.51
2019-06-27T07:32:08.947Z,40.38
2019-06-27T07:32:49.525Z,40.01
2019-06-27T07:33:30.105Z,37.69
2019-06-27T07:34:10.761Z,37.49
2019-06-27T07:34:51.384Z,37.77
2019-06-27T07:35:32.006Z,38.93
2019-06-27T07:36:12.601Z,38.64
2019-06-27T07:36:53.190Z,37.67
2019-06-27T07:37:33.777Z,37.09
2019-06-27T07:38:14.366Z,37.4
2019-06-27T07:38:54.969Z,37.57
2019-06-27T07:39:35.571Z,37.38
2019-06-27T07:40:16.175Z,37.87
2019-06-27T07:40:56.784Z,38.93
2019-06-27T07:41:37.427Z,39.22
2019-06-27T07:42:18.026Z,39.41
2019-06-27T07:42:58.617Z,39.8
2019-06-27T07:43:39.228Z,38.35
2019-06-27T07:44:20.401Z,38.25
2019-06-27T07:45:00.412Z,39.51
2019-06-27T07:45:41.042Z,39.41
2019-06-27T07:46:25.350Z,38.83
2019-06-27T07:47:02.211Z,37.38
2019-06-27T07:47:42.830Z,36.6
2019-06-27T07:48:23.530Z,36.58
2019-06-27T07:49:04.160Z,36
2019-06-27T07:49:44.777Z,36.49
2019-06-27T07:50:25.375Z,36.49
2019-06-27T07:51:06.012Z,36.47
2019-06-27T07:51:46.616Z,37.05
2019-06-27T07:52:27.215Z,37.73
2019-06-27T07:53:07.815Z,37.71
2019-06-27T07:53:48.428Z,38.29
2019-06-27T07:54:29.026Z,38.1
2019-06-27T07:55:09.633Z,38.48
2019-06-27T07:55:50.294Z,38.87
2019-06-27T07:56:30.915Z,38.97
2019-06-27T07:57:11.496Z,39.92
2019-06-27T07:57:52.148Z,40.61
2019-06-27T07:58:32.702Z,41
2019-06-27T07:59:13.337Z,40.23
2019-06-27T07:59:53.936Z,40.9
2019-06-27T08:00:34.575Z,40.81
2019-06-27T08:01:15.153Z,40.44
2019-06-27T08:01:55.758Z,40.83
2019-06-27T08:02:36.393Z,40.92
2019-06-27T08:03:16.969Z,40.34
2019-06-27T08:03:57.550Z,40.17
2019-06-27T08:04:38.210Z,39.69
2019-06-27T08:05:18.750Z,40.07
2019-06-27T08:05:59.344Z,39.88
2019-06-27T08:06:39.961Z,40.75
2019-06-27T08:07:21.365Z,40.17
2019-06-27T08:08:01.419Z,40.09
2019-06-27T08:08:42.307Z,39.61
2019-06-27T08:09:22.988Z,39.41
2019-06-27T08:10:03.561Z,38.73
2019-06-27T08:10:44.177Z,39.41
2019-06-27T08:11:24.752Z,39.8
2019-06-27T08:12:05.354Z,39.49
2019-06-27T08:12:45.973Z,39.78
2019-06-27T08:13:26.581Z,40.36
2019-06-27T08:14:07.202Z,39.97
2019-06-27T08:14:47.819Z,40.65
2019-06-27T08:15:28.450Z,41.45
2019-06-27T08:16:09.051Z,41.16
2019-06-27T08:16:49.637Z,40.96
2019-06-27T08:17:30.221Z,40.28
2019-06-27T08:18:10.927Z,41.16
2019-06-27T08:18:51.494Z,41.25
2019-06-27T08:19:32.186Z,40.96
2019-06-27T08:20:12.811Z,41.08
2019-06-27T08:20:53.384Z,40.79
2019-06-27T08:21:34.013Z,41.08
2019-06-27T08:22:14.629Z,40.99
2019-06-27T08:22:55.236Z,37.69
2019-06-27T08:23:41.328Z,36.9
2019-06-27T08:24:16.449Z,36.9
2019-06-27T08:24:57.054Z,37.65
2019-06-27T08:25:37.694Z,38.71
2019-06-27T08:26:18.248Z,39.69
2019-06-27T08:26:58.856Z,39.69
2019-06-27T08:27:39.436Z,39.97
2019-06-27T08:28:20.073Z,39.97
2019-06-27T08:29:00.831Z,40.07
2019-06-27T08:29:41.779Z,39.88
2019-06-27T08:30:22.447Z,39.61
2019-06-27T08:31:03.120Z,38.93
2019-06-27T08:31:51.208Z,39.8
2019-06-27T08:32:24.395Z,40.19
2019-06-27T08:33:05.030Z,40
2019-06-27T08:33:45.651Z,39.41
2019-06-27T08:34:26.344Z,38.64
2019-06-27T08:35:06.972Z,36.8
2019-06-27T08:35:47.589Z,37.38
2019-06-27T08:36:28.240Z,38.13
2019-06-27T08:37:09.014Z,37.65
2019-06-27T08:37:49.701Z,37.94
2019-06-27T08:38:30.657Z,38.13
2019-06-27T08:39:11.498Z,37.55
2019-06-27T08:39:52.237Z,39.01
2019-06-27T08:40:32.907Z,38.91
2019-06-27T08:41:14.162Z,38.71
2019-06-27T08:41:54.248Z,39.11
2019-06-27T08:42:34.969Z,39.32
2019-06-27T08:43:15.647Z,38.15
2019-06-27T08:43:56.316Z,37.17
2019-06-27T08:44:36.935Z,37.65
2019-06-27T08:45:17.540Z,38.04
2019-06-27T08:45:58.096Z,38.25
2019-06-27T08:46:38.674Z,37.77
2019-06-27T08:47:19.302Z,35.62
2019-06-27T08:47:59.882Z,35.42
2019-06-27T08:48:40.452Z,36.49
2019-06-27T08:49:21.024Z,36.3
2019-06-27T08:50:01.629Z,36.3
2019-06-27T08:50:42.204Z,36.1
2019-06-27T08:51:22.787Z,37.36
2019-06-27T08:52:03.399Z,37.55
2019-06-27T08:52:43.985Z,37.85